Latest Coastal Weather Observations for Horn Island

IDQ60701

Issued at 9:01 am EST Friday 19 December 2014 (issued every 10 minutes, with the page automatically refreshed every 10 minutes)

About coastal observations | Map of coastal stations | Coastal observations for QLD | Marine services | Other Formats
Station Details ID: 027058 Name: HORN ISLAND Lat: -10.58 Lon: 142.29 Height: 4.0 m
Data from the previous 72 hours. | See also: Recent months at Horn Island
Date/Time
EST
Temp

°C
Wind Pressure Rain
since 9am
mm
Weather Cloud Vis
km
Sea
Height
m
Swell
Dir
 
Speed
knots
Gust
knots
hPa Trend Height
m
Period
s
Dir
19/09:00am 31.5 E 8 11 1011.0 - 0.0 - Cloudy 10 - - - -
19/08:30am 30.6 E 7 11 1011.2 - 0.0 - - 10 - - - -
19/08:00am 30.5 E 7 9 1010.8 - 0.0 - - 10 - - - -
19/07:30am 30.1 E 8 11 1010.9 - 0.0 - - 10 - - - -
19/07:00am 29.5 E 1 4 1010.7 - 0.0 - Partly cloudy 10 - - - -
19/06:30am 28.0 E 5 6 1010.4 - 0.0 - Partly cloudy 10 - - - -
19/06:00am 26.9 S 4 4 1009.9 - 0.0 - Cloudy 10 - - - -
19/05:30am 26.8 SSE 3 4 1009.7 - 0.0 - Partly cloudy 10 - - - -
19/05:00am 26.9 E 1 4 1009.5 - 0.0 - - 10 - - - -
19/04:30am 26.9 CALM 0 0 1009.3 - 0.0 - Partly cloudy 10 - - - -
19/04:00am 27.0 CALM 0 0 1009.5 - 0.0 - Partly cloudy 10 - - - -
19/03:30am 26.6 CALM 0 0 1009.6 - 0.0 - Partly cloudy 10 - - - -
19/03:00am 26.5 S 3 4 1009.8 - 0.0 - Cloudy 10 - - - -
19/02:30am 27.0 ESE 1 2 1009.8 - 0.0 - - 10 - - - -
19/02:00am 27.9 E 3 5 1009.8 - 0.0 - - 10 - - - -
19/01:30am 28.4 ESE 4 5 1009.8 - 0.0 - - 10 - - - -
19/01:00am 28.7 E 6 8 1009.8 - 0.0 - - 10 - - - -
19/12:30am 28.7 E 5 7 1010.0 - 0.0 - - 10 - - - -
19/12:00am 29.0 E 7 9 1010.3 - 0.0 - Cloudy 10 - - - -
 
Date/Time
EST
Temp

°C
Wind Pressure Rain
since 9am
mm
Weather Cloud Vis
km
Sea
Height
m
Swell
Dir
 
Speed
knots
Gust
knots
hPa Trend Height
m
Period
s
Dir
18/11:30pm 28.5 E 4 6 1010.2 - 0.0 - Partly cloudy 10 - - - -
18/11:00pm 28.6 E 4 5 1009.9 - 0.0 - Partly cloudy 10 - - - -
18/10:30pm 28.7 E 5 6 1009.4 - 0.0 - Partly cloudy 10 - - - -
18/10:00pm 28.9 E 5 8 1009.3 - 0.0 - Partly cloudy 10 - - - -
18/09:30pm 28.8 E 5 8 1009.1 - 0.0 - - 10 - - - -
18/09:00pm 28.7 E 5 7 1009.1 - 0.0 - - 10 - - - -
18/08:30pm 29.2 E 4 5 1008.7 - 0.0 - - 10 - - - -
18/08:00pm 29.0 ENE 4 6 1008.5 - 0.0 - - 10 - - - -
18/07:30pm 29.5 E 6 8 1008.4 - 0.0 - Partly cloudy 10 - - - -
18/07:00pm 29.6 E 5 7 1008.3 - 0.0 - - 10 - - - -
18/06:30pm 30.0 ENE 6 8 1008.2 - 0.0 - - 10 - - - -
18/06:00pm 30.5 NE 7 9 1008.2 - 0.0 - - 10 - - - -
18/05:30pm 30.8 NE 7 10 1007.8 - 0.0 - - 10 - - - -
18/05:00pm 31.4 ENE 8 11 1007.6 - 0.0 - - 10 - - - -
18/04:30pm 31.7 NE 9 13 1007.6 - 0.0 - - 10 - - - -
18/04:00pm 31.6 NE 10 14 1007.5 - 0.0 - - 10 - - - -
18/03:30pm 31.9 NNE 10 15 1007.7 - 0.0 - - 10 - - - -
18/03:00pm 31.9 NNE 10 14 1008.0 - 0.0 - - 10 - - - -
18/02:30pm 32.6 NNE 10 14 1008.3 - 0.0 - - 10 - - - -
18/02:00pm 32.4 NNE 10 14 1008.4 - 0.0 - - 10 - - - -
18/01:30pm 32.3 ENE 10 14 1008.6 - 0.0 - - 10 - - - -
18/01:00pm 32.6 NE 10 13 1009.0 - 0.0 - - 10 - - - -
18/12:30pm 32.2 ENE 11 14 1009.4 - 0.0 - - 10 - - - -
18/12:00pm 32.7 ENE 11 13 1009.6 - 0.0 - - 10 - - - -
18/11:30am 32.5 NE 9 12 1010.0 - 0.0 - - 10 - - - -
18/11:00am 32.2 E 9 12 1010.2 - 0.0 - - 10 - - - -
18/10:30am 31.8 ENE 8 11 1010.4 - 0.0 - - 10 - - - -
18/10:00am 31.3 E 8 12 1010.6 - 0.0 - - 10 - - - -
18/09:30am 31.2 E 8 12 1010.8 - 0.0 - - 10 - - - -
18/09:00am 31.0 ENE 7 11 1010.8 - 0.2 - - 10 - - - -
18/08:30am 31.0 E 6 9 1010.9 - 0.2 - Partly cloudy 10 - - - -
18/08:00am 30.4 ESE 6 9 1010.7 - 0.2 - Partly cloudy 10 - - - -
18/07:30am 29.8 SE 5 7 1010.8 - 0.2 - Partly cloudy 10 - - - -
18/07:00am 28.2 CALM 0 0 1010.4 - 0.0 - Partly cloudy 10 - - - -
18/06:30am 27.3 CALM 0 0 1010.0 - 0.0 - Partly cloudy 10 - - - -
18/06:00am 26.7 CALM 0 3 1009.5 - 0.0 - Cloudy 10 - - - -
18/05:30am 26.2 CALM 0 0 1009.0 - 0.0 - Partly cloudy 10 - - - -
18/05:00am 26.4 CALM 0 0 1008.8 - 0.0 - Partly cloudy 10 - - - -
18/04:30am 26.6 CALM 0 0 1008.5 - 0.0 - Partly cloudy 10 - - - -
18/04:00am 26.5 CALM 0 0 1008.5 - 0.0 - Partly cloudy 10 - - - -
18/03:30am 26.7 CALM 0 0 1008.5 - 0.0 - - 10 - - - -
18/03:00am 26.6 SSW 3 4 1008.7 - 0.0 - - 10 - - - -
18/02:30am 27.3 CALM 0 0 1008.7 - 0.0 - Partly cloudy 10 - - - -
18/02:00am 27.7 CALM 0 0 1008.6 - 0.0 - Partly cloudy 10 - - - -
18/01:30am 27.5 SSE 2 3 1008.5 - 0.0 - Partly cloudy 10 - - - -
18/01:00am 27.8 SSE 3 4 1008.6 - 0.0 - Partly cloudy 10 - - - -
18/12:30am 28.0 CALM 0 1 1008.7 - 0.0 - Partly cloudy 10 - - - -
18/12:00am 28.6 N 2 5 1008.9 - 0.0 - Cloudy 10 - - - -
 
Date/Time
EST
Temp

°C
Wind Pressure Rain
since 9am
mm
Weather Cloud Vis
km
Sea
Height
m
Swell
Dir
 
Speed
knots
Gust
knots
hPa Trend Height
m
Period
s
Dir
17/11:30pm 27.8 CALM 0 0 1008.9 - 0.0 - Cloudy 10 - - - -
17/11:00pm 27.4 SSW 1 4 1009.0 - 0.0 - - 10 - - - -
17/10:30pm 27.9 CALM 0 0 1009.1 - 0.0 - - 10 - - - -
17/10:00pm 27.7 SSW 1 4 1008.9 - 0.0 - Partly cloudy 10 - - - -
17/09:30pm 28.4 E 3 4 1008.5 - 0.0 - Partly cloudy 10 - - - -
17/09:00pm 29.1 E 3 3 1008.4 - 0.0 - Cloudy 10 - - - -
17/08:30pm 28.7 E 2 3 1008.0 - 0.0 - Cloudy 10 - - - -
17/08:00pm 28.8 E 3 3 1007.7 - 0.0 - Partly cloudy 10 - - - -
17/07:30pm 29.2 ENE 3 4 1007.6 - 0.0 - Partly cloudy 10 - - - -
17/07:00pm 29.5 NNE 2 3 1007.2 - 0.0 - Partly cloudy 10 - - - -
17/06:30pm 29.8 N 4 6 1006.8 - 0.0 - - 10 - - - -
17/06:00pm 30.1 N 6 8 1006.4 - 0.0 - - 10 - - - -
17/05:30pm 30.8 N 6 8 1006.3 - 0.0 - - 10 - - - -
17/05:00pm 31.1 NNW 7 9 1006.3 - 0.0 - Partly cloudy 10 - - - -
17/04:30pm 30.8 N 7 9 1006.2 - 0.0 - Partly cloudy 10 - - - -
17/04:00pm 31.5 N 8 11 1006.1 - 0.0 - Partly cloudy 10 - - - -
17/03:30pm 32.2 NE 8 11 1006.0 - 0.0 - - 10 - - - -
17/03:00pm 32.6 NE 7 10 1006.2 - 0.0 - - 10 - - - -
17/02:30pm 32.0 N 7 9 1006.6 - 0.0 - - 10 - - - -
17/02:00pm 32.7 NNE 7 11 1007.1 - 0.0 - - 10 - - - -
17/01:30pm 31.9 N 8 11 1007.6 - 0.0 - - 10 - - - -
17/01:00pm 31.8 N 7 10 1008.0 - 0.0 - - 10 - - - -
17/12:30pm 32.1 NNE 7 11 1008.3 - 0.0 - - 10 - - - -
17/12:00pm 32.1 N 8 10 1008.9 - 0.0 - Cloudy 10 - - - -
17/11:30am 31.8 NNE 9 12 1009.2 - 0.0 - - 10 - - - -
17/11:00am 32.7 NE 7 13 1009.6 - 0.0 - - 10 - - - -
17/10:30am 31.5 NNE 8 13 1009.9 - 0.0 - - 10 - - - -
17/10:00am 31.2 E 8 12 1009.9 - 0.0 - - 10 - - - -
17/09:30am 31.1 ENE 8 12 1009.7 - 0.0 - Partly cloudy 10 - - - -
17/09:00am 30.4 E 7 10 1009.6 - 0.0 - Cloudy 10 - - - -
17/08:30am 30.3 ENE 6 8 1009.4 - 0.0 - Partly cloudy 10 - - - -
17/08:00am 30.1 E 7 9 1009.2 - 0.0 - - 10 - - - -
17/07:30am 29.6 E 6 9 1008.9 - 0.0 - Partly cloudy 10 - - - -
17/07:00am 29.0 E 4 5 1008.9 - 0.0 - - 10 - - - -
17/06:30am 27.6 ESE 3 4 1008.4 - 0.0 - - 10 - - - -
17/06:00am 27.3 ENE 4 5 1007.8 - 0.0 - - 10 - - - -
17/05:30am 27.7 E 5 7 1007.4 - 0.0 - - 10 - - - -
17/05:00am 27.8 E 6 7 1006.9 - 0.0 - - 10 - - - -
17/04:30am 28.0 ENE 6 8 1006.5 - 0.0 - Partly cloudy 10 - - - -
17/04:00am 28.2 ENE 6 8 1006.4 - 0.0 - Partly cloudy 10 - - - -
17/03:44am 28.1 E 5 7 1006.3 - 0.0 - Partly cloudy 10 - - - -
17/03:34am 28.1 E 5 7 1006.2 - 0.0 - Partly cloudy 10 - - - -
17/03:30am 28.1 E 5 7 1006.3 - 0.0 - Partly cloudy 10 - - - -
17/03:00am 27.9 NE 4 6 1006.2 - 0.0 - Cloudy 10 - - - -
17/02:30am 27.7 ESE 3 5 1006.5 - 0.0 - Partly cloudy 10 - - - -
17/02:10am 27.6 SE 2 3 1006.6 - 0.0 - Partly cloudy 10 - - - -
17/02:00am 27.5 S 4 5 1006.6 - 0.0 - Partly cloudy 10 - - - -
17/01:30am 27.7 CALM 0 0 1006.9 - 0.0 - Cloudy 10 - - - -
17/01:10am 27.9 CALM 0 0 1007.1 - 0.0 - Partly cloudy 10 - - - -
17/01:00am 27.5 CALM 0 0 1007.2 - 0.0 - Partly cloudy 10 - - - -
17/12:30am 27.3 CALM 0 0 1007.7 - 0.0 - Partly cloudy 10 - - - -
17/12:00am 27.3 CALM 0 0 1008.2 - 0.0 - Cloudy 10 - - - -
 
Date/Time
EST
Temp

°C
Wind Pressure Rain
since 9am
mm
Weather Cloud Vis
km
Sea
Height
m
Swell
Dir
 
Speed
knots
Gust
knots
hPa Trend Height
m
Period
s
Dir
16/11:30pm 27.5 ESE 4 5 1008.1 - 0.0 - - 10 - - - -
16/11:00pm 27.6 CALM 0 0 1008.1 - 0.0 - - 10 - - - -
16/10:30pm 27.9 CALM 0 0 1008.3 - 0.0 - - 10 - - - -
16/10:00pm 27.9 CALM 0 0 1008.5 - 0.0 - Partly cloudy 10 - - - -
16/09:30pm 28.0 SW 3 4 1008.5 - 0.0 - Partly cloudy 10 - - - -
16/09:00pm 28.5 CALM 0 0 1008.5 - 0.0 - Cloudy 10 - - - -
16/08:30pm 28.9 CALM 0 0 1008.3 - 0.0 - Partly cloudy 10 - - - -
16/08:00pm 28.9 WSW 4 5 1008.2 - 0.0 - Partly cloudy 10 - - - -
16/07:30pm 28.9 WNW 3 5 1007.6 - 0.0 - Partly cloudy 10 - - - -
16/07:00pm 29.0 W 3 6 1007.3 - 0.0 - Partly cloudy 10 - - - -
16/06:30pm 29.3 W 5 7 1006.9 - 0.0 - Partly cloudy 10 - - - -
16/06:00pm 29.2 W 6 8 1006.7 - 0.0 - Cloudy 10 - - - -
16/05:30pm 29.9 WNW 4 5 1006.3 - 0.0 - Partly cloudy 10 - - - -
16/05:00pm 30.1 W 5 8 1006.1 - 0.0 - Partly cloudy 10 - - - -
16/04:30pm 30.8 SSW 7 9 1006.2 - 0.0 - Partly cloudy 10 - - - -
16/04:00pm 30.7 SE 10 13 1006.5 - 0.0 - Partly cloudy 10 - - - -
16/03:30pm 31.6 NNW 8 10 1006.4 - 0.0 - Partly cloudy 10 - - - -
16/03:00pm 31.9 NNW 9 12 1007.0 - 0.0 - Cloudy 10 - - - -
16/02:30pm 31.4 NNW 9 12 1007.4 - 0.0 - Partly cloudy 10 - - - -
16/02:00pm 31.8 WNW 8 12 1007.2 - 0.0 - Partly cloudy 10 - - - -
16/01:30pm 31.7 W 10 12 1008.1 - 0.0 - Partly cloudy 10 - - - -
16/01:00pm 30.4 NNW 6 9 1008.6 - 0.0 - Partly cloudy 10 - - - -
16/12:30pm 30.2 NNW 9 11 1009.3 - 0.0 - - 10 - - - -
16/12:00pm 29.6 N 7 9 1009.4 - 0.0 - - 10 - - - -
16/11:30am 29.3 N 6 8 1009.7 - 0.0 - - 10 - - - -
16/11:00am 29.0 N 7 10 1009.9 - 0.0 - - 10 - - - -
16/10:30am 29.3 NNW 7 10 1010.3 - 0.0 - - 10 - - - -
16/10:00am 28.9 NNW 8 11 1010.7 - 0.0 - - 10 - - - -
16/09:30am 28.5 NNW 8 13 1010.8 - 0.0 - Partly cloudy 10 - - - -
16/09:17am 28.1 N 9 11 1010.7 - 0.0 - Partly cloudy 10 - - - -

Other Formats:

Comma delimited format used in spreadsheet applications
http://www.bom.gov.au/fwo/IDQ60701/IDQ60701.94174.axf

JavaScript Object Notation format (JSON) in row-major order
http://www.bom.gov.au/fwo/IDQ60701/IDQ60701.94174.json